sensor_id;sensor_type;location;lat;lon;timestamp;pressure;altitude;pressure_sealevel;temperature;humidity
76311;BME280;65120;59.304;18.294;2023-07-13T00:01:53;100540.16;;;18.06;68.13
76311;BME280;65120;59.304;18.294;2023-07-13T00:04:21;100537.75;;;18.01;67.79
76311;BME280;65120;59.304;18.294;2023-07-13T00:06:51;100544.94;;;17.99;67.84
76311;BME280;65120;59.304;18.294;2023-07-13T00:09:19;100538.19;;;17.93;67.71
76311;BME280;65120;59.304;18.294;2023-07-13T00:11:51;100535.06;;;17.85;67.89
76311;BME280;65120;59.304;18.294;2023-07-13T00:14:19;100543.78;;;17.87;67.96
76311;BME280;65120;59.304;18.294;2023-07-13T00:16:46;100539.69;;;17.82;67.77
76311;BME280;65120;59.304;18.294;2023-07-13T00:19:14;100539.75;;;17.80;67.62
76311;BME280;65120;59.304;18.294;2023-07-13T00:21:42;100537.28;;;17.75;67.44
76311;BME280;65120;59.304;18.294;2023-07-13T00:24:12;100538.31;;;17.73;67.67
76311;BME280;65120;59.304;18.294;2023-07-13T00:26:40;100542.91;;;17.69;67.42
76311;BME280;65120;59.304;18.294;2023-07-13T00:29:10;100542.22;;;17.66;67.63
76311;BME280;65120;59.304;18.294;2023-07-13T00:31:37;100526.59;;;17.61;67.59
76311;BME280;65120;59.304;18.294;2023-07-13T00:34:04;100536.47;;;17.58;67.44
76311;BME280;65120;59.304;18.294;2023-07-13T00:36:33;100533.13;;;17.54;67.24
76311;BME280;65120;59.304;18.294;2023-07-13T00:39:00;100523.22;;;17.42;67.29
76311;BME280;65120;59.304;18.294;2023-07-13T00:41:27;100540.66;;;17.44;67.28
76311;BME280;65120;59.304;18.294;2023-07-13T00:43:54;100532.03;;;17.41;67.07
76311;BME280;65120;59.304;18.294;2023-07-13T00:46:24;100525.22;;;17.37;67.02
76311;BME280;65120;59.304;18.294;2023-07-13T00:48:53;100536.84;;;17.33;67.14
76311;BME280;65120;59.304;18.294;2023-07-13T00:51:26;100538.81;;;17.29;67.13
76311;BME280;65120;59.304;18.294;2023-07-13T00:53:59;100550.47;;;17.25;67.20
76311;BME280;65120;59.304;18.294;2023-07-13T00:56:27;100557.66;;;17.21;67.21
76311;BME280;65120;59.304;18.294;2023-07-13T00:58:55;100546.63;;;17.13;67.25
76311;BME280;65120;59.304;18.294;2023-07-13T01:01:22;100555.47;;;17.12;67.18
76311;BME280;65120;59.304;18.294;2023-07-13T01:03:49;100536.53;;;17.04;67.22
76311;BME280;65120;59.304;18.294;2023-07-13T01:06:17;100553.16;;;17.06;67.46
76311;BME280;65120;59.304;18.294;2023-07-13T01:08:44;100548.06;;;17.01;67.40
76311;BME280;65120;59.304;18.294;2023-07-13T01:11:18;100552.59;;;16.99;67.46
76311;BME280;65120;59.304;18.294;2023-07-13T01:13:46;100554.44;;;16.97;67.61
76311;BME280;65120;59.304;18.294;2023-07-13T01:16:18;100552.88;;;16.93;67.65
76311;BME280;65120;59.304;18.294;2023-07-13T01:18:46;100553.91;;;16.91;67.52
76311;BME280;65120;59.304;18.294;2023-07-13T01:21:15;100530.81;;;16.77;67.74
76311;BME280;65120;59.304;18.294;2023-07-13T01:23:44;100548.13;;;16.82;67.73
76311;BME280;65120;59.304;18.294;2023-07-13T01:26:11;100550.91;;;16.79;67.94
76311;BME280;65120;59.304;18.294;2023-07-13T01:28:38;100550.16;;;16.76;68.03
76311;BME280;65120;59.304;18.294;2023-07-13T01:31:05;100555.53;;;16.74;68.12
76311;BME280;65120;59.304;18.294;2023-07-13T01:33:33;100553.94;;;16.70;68.20
76311;BME280;65120;59.304;18.294;2023-07-13T01:36:00;100536.22;;;16.55;68.06
76311;BME280;65120;59.304;18.294;2023-07-13T01:38:29;100553.44;;;16.62;67.85
76311;BME280;65120;59.304;18.294;2023-07-13T01:40:56;100556.97;;;16.62;67.97
76311;BME280;65120;59.304;18.294;2023-07-13T01:43:23;100565.88;;;16.60;68.11
76311;BME280;65120;59.304;18.294;2023-07-13T01:45:50;100559.81;;;16.58;68.07
76311;BME280;65120;59.304;18.294;2023-07-13T01:48:17;100561.78;;;16.53;68.58
76311;BME280;65120;59.304;18.294;2023-07-13T01:50:46;100571.44;;;16.54;68.49
76311;BME280;65120;59.304;18.294;2023-07-13T01:53:14;100567.16;;;16.51;68.59
76311;BME280;65120;59.304;18.294;2023-07-13T01:55:42;100551.69;;;16.44;68.37
76311;BME280;65120;59.304;18.294;2023-07-13T01:58:09;100555.09;;;16.46;68.56
76311;BME280;65120;59.304;18.294;2023-07-13T02:00:36;100557.75;;;16.46;68.37
76311;BME280;65120;59.304;18.294;2023-07-13T02:03:04;100554.47;;;16.40;68.73
76311;BME280;65120;59.304;18.294;2023-07-13T02:05:31;100568.44;;;16.42;68.39
76311;BME280;65120;59.304;18.294;2023-07-13T02:07:58;100575.59;;;16.39;68.56
76311;BME280;65120;59.304;18.294;2023-07-13T02:10:25;100578.31;;;16.37;68.62
76311;BME280;65120;59.304;18.294;2023-07-13T02:12:53;100584.53;;;16.36;68.48
76311;BME280;65120;59.304;18.294;2023-07-13T02:15:20;100578.47;;;16.34;68.46
76311;BME280;65120;59.304;18.294;2023-07-13T02:17:47;100575.13;;;16.31;68.40
76311;BME280;65120;59.304;18.294;2023-07-13T02:20:14;100567.34;;;16.28;68.48
76311;BME280;65120;59.304;18.294;2023-07-13T02:22:41;100559.50;;;16.26;68.37
76311;BME280;65120;59.304;18.294;2023-07-13T02:25:08;100559.50;;;16.26;68.33
76311;BME280;65120;59.304;18.294;2023-07-13T02:27:35;100558.00;;;16.21;68.42
76311;BME280;65120;59.304;18.294;2023-07-13T02:30:05;100570.34;;;16.20;68.49
76311;BME280;65120;59.304;18.294;2023-07-13T02:32:33;100565.22;;;16.17;68.43
76311;BME280;65120;59.304;18.294;2023-07-13T02:35:01;100574.94;;;16.15;68.58
76311;BME280;65120;59.304;18.294;2023-07-13T02:37:28;100581.22;;;16.12;68.72
76311;BME280;65120;59.304;18.294;2023-07-13T02:39:55;100583.06;;;16.10;68.54
76311;BME280;65120;59.304;18.294;2023-07-13T02:42:22;100584.91;;;16.08;68.44
76311;BME280;65120;59.304;18.294;2023-07-13T02:44:49;100592.16;;;16.03;68.69
76311;BME280;65120;59.304;18.294;2023-07-13T02:47:18;100584.19;;;16.05;68.75
76311;BME280;65120;59.304;18.294;2023-07-13T02:49:45;100586.03;;;16.03;68.97
76311;BME280;65120;59.304;18.294;2023-07-13T02:52:12;100583.59;;;15.98;69.19
76311;BME280;65120;59.304;18.294;2023-07-13T02:54:39;100581.75;;;16.00;69.05
76311;BME280;65120;59.304;18.294;2023-07-13T02:57:06;100585.31;;;15.99;69.26
76311;BME280;65120;59.304;18.294;2023-07-13T02:59:33;100589.72;;;15.99;69.27
76311;BME280;65120;59.304;18.294;2023-07-13T03:02:01;100591.56;;;15.96;69.48
76311;BME280;65120;59.304;18.294;2023-07-13T03:04:30;100586.28;;;15.96;69.53
76311;BME280;65120;59.304;18.294;2023-07-13T03:06:56;100596.81;;;15.96;69.67
76311;BME280;65120;59.304;18.294;2023-07-13T03:09:24;100601.25;;;15.96;69.97
76311;BME280;65120;59.304;18.294;2023-07-13T03:11:53;100602.09;;;15.96;70.05
76311;BME280;65120;59.304;18.294;2023-07-13T03:14:20;100602.97;;;15.97;70.28
76311;BME280;65120;59.304;18.294;2023-07-13T03:16:48;100607.31;;;15.98;70.47
76311;BME280;65120;59.304;18.294;2023-07-13T03:19:15;100601.09;;;15.99;70.62
76311;BME280;65120;59.304;18.294;2023-07-13T03:21:43;100603.69;;;16.01;70.87
76311;BME280;65120;59.304;18.294;2023-07-13T03:24:11;100605.47;;;16.00;70.84
76311;BME280;65120;59.304;18.294;2023-07-13T03:26:38;100610.59;;;16.03;71.24
76311;BME280;65120;59.304;18.294;2023-07-13T03:29:05;100612.25;;;16.06;71.33
76311;BME280;65120;59.304;18.294;2023-07-13T03:31:34;100604.34;;;16.06;71.50
76311;BME280;65120;59.304;18.294;2023-07-13T03:34:01;100613.81;;;16.10;71.64
76311;BME280;65120;59.304;18.294;2023-07-13T03:36:30;100615.56;;;16.11;71.69
76311;BME280;65120;59.304;18.294;2023-07-13T03:39:01;100611.03;;;16.13;71.75
76311;BME280;65120;59.304;18.294;2023-07-13T03:41:28;100605.84;;;16.11;71.91
76311;BME280;65120;59.304;18.294;2023-07-13T03:43:56;100611.75;;;16.16;72.06
76311;BME280;65120;59.304;18.294;2023-07-13T03:46:23;100607.28;;;16.18;72.17
76311;BME280;65120;59.304;18.294;2023-07-13T03:48:50;100616.00;;;16.21;72.31
76311;BME280;65120;59.304;18.294;2023-07-13T03:51:18;100608.94;;;16.21;72.38
76311;BME280;65120;59.304;18.294;2023-07-13T03:53:46;100620.13;;;16.26;72.51
76311;BME280;65120;59.304;18.294;2023-07-13T03:56:17;100619.16;;;16.29;72.52
76311;BME280;65120;59.304;18.294;2023-07-13T03:58:45;100627.84;;;16.31;72.49
76311;BME280;65120;59.304;18.294;2023-07-13T04:01:14;100622.44;;;16.34;72.73
76311;BME280;65120;59.304;18.294;2023-07-13T04:03:42;100621.44;;;16.36;72.97
76311;BME280;65120;59.304;18.294;2023-07-13T04:06:15;100626.50;;;16.41;72.80
76311;BME280;65120;59.304;18.294;2023-07-13T04:08:47;100629.97;;;16.41;72.65
76311;BME280;65120;59.304;18.294;2023-07-13T04:11:17;100628.13;;;16.44;72.79
76311;BME280;65120;59.304;18.294;2023-07-13T04:13:45;100628.84;;;16.47;72.90
76311;BME280;65120;59.304;18.294;2023-07-13T04:16:13;100626.06;;;16.50;72.79
76311;BME280;65120;59.304;18.294;2023-07-13T04:18:40;100599.63;;;16.33;72.87
76311;BME280;65120;59.304;18.294;2023-07-13T04:21:08;100645.13;;;16.57;73.00
76311;BME280;65120;59.304;18.294;2023-07-13T04:23:35;100648.53;;;16.59;73.04
76311;BME280;65120;59.304;18.294;2023-07-13T04:26:02;100626.81;;;16.54;73.08
76311;BME280;65120;59.304;18.294;2023-07-13T04:28:31;100629.81;;;16.65;72.95
76311;BME280;65120;59.304;18.294;2023-07-13T04:30:58;100622.16;;;16.59;72.88
76311;BME280;65120;59.304;18.294;2023-07-13T04:33:26;100637.50;;;16.70;73.10
76311;BME280;65120;59.304;18.294;2023-07-13T04:35:54;100636.50;;;16.72;72.99
76311;BME280;65120;59.304;18.294;2023-07-13T04:38:24;100632.84;;;16.76;73.02
76311;BME280;65120;59.304;18.294;2023-07-13T04:40:54;100640.63;;;16.79;72.97
76311;BME280;65120;59.304;18.294;2023-07-13T04:43:22;100641.38;;;16.81;73.10
76311;BME280;65120;59.304;18.294;2023-07-13T04:45:51;100650.94;;;16.84;73.01
76311;BME280;65120;59.304;18.294;2023-07-13T04:48:18;100653.38;;;16.89;72.74
76311;BME280;65120;59.304;18.294;2023-07-13T04:50:45;100650.59;;;16.92;72.87
76311;BME280;65120;59.304;18.294;2023-07-13T04:53:12;100639.03;;;16.94;73.01
76311;BME280;65120;59.304;18.294;2023-07-13T04:55:39;100631.13;;;16.94;72.94
76311;BME280;65120;59.304;18.294;2023-07-13T04:58:06;100648.44;;;17.00;73.12
76311;BME280;65120;59.304;18.294;2023-07-13T05:00:33;100648.28;;;17.03;72.87
76311;BME280;65120;59.304;18.294;2023-07-13T05:03:03;100634.53;;;16.96;72.85
76311;BME280;65120;59.304;18.294;2023-07-13T05:05:30;100646.22;;;17.09;72.57
76311;BME280;65120;59.304;18.294;2023-07-13T05:07:57;100629.81;;;17.03;72.82
76311;BME280;65120;59.304;18.294;2023-07-13T05:10:25;100651.19;;;17.16;73.06
76311;BME280;65120;59.304;18.294;2023-07-13T05:12:52;100638.88;;;17.16;72.71
76311;BME280;65120;59.304;18.294;2023-07-13T05:15:21;100648.19;;;17.23;72.84
76311;BME280;65120;59.304;18.294;2023-07-13T05:17:48;100640.97;;;17.27;72.90
76311;BME280;65120;59.304;18.294;2023-07-13T05:20:18;100630.56;;;17.24;72.77
76311;BME280;65120;59.304;18.294;2023-07-13T05:22:45;100642.41;;;17.34;72.42
76311;BME280;65120;59.304;18.294;2023-07-13T05:25:14;100640.47;;;17.38;72.60
76311;BME280;65120;59.304;18.294;2023-07-13T05:27:41;100643.78;;;17.41;72.66
76311;BME280;65120;59.304;18.294;2023-07-13T05:30:08;100645.38;;;17.45;72.57
76311;BME280;65120;59.304;18.294;2023-07-13T05:32:37;100624.63;;;17.38;72.52
76311;BME280;65120;59.304;18.294;2023-07-13T05:35:05;100652.00;;;17.54;72.41
76311;BME280;65120;59.304;18.294;2023-07-13T05:37:33;100638.78;;;17.54;72.23
76311;BME280;65120;59.304;18.294;2023-07-13T05:40:01;100650.53;;;17.66;72.23
76311;BME280;65120;59.304;18.294;2023-07-13T05:42:28;100657.44;;;17.68;72.30
76311;BME280;65120;59.304;18.294;2023-07-13T05:44:56;100664.13;;;17.75;71.70
76311;BME280;65120;59.304;18.294;2023-07-13T05:47:23;100661.28;;;17.80;71.53
76311;BME280;65120;59.304;18.294;2023-07-13T05:49:50;100660.13;;;17.86;71.35
76311;BME280;65120;59.304;18.294;2023-07-13T05:52:17;100658.94;;;17.91;71.12
76311;BME280;65120;59.304;18.294;2023-07-13T05:54:46;100662.22;;;17.96;71.25
76311;BME280;65120;59.304;18.294;2023-07-13T05:57:13;100649.69;;;18.00;71.02
76311;BME280;65120;59.304;18.294;2023-07-13T05:59:40;100652.97;;;18.05;70.91
76311;BME280;65120;59.304;18.294;2023-07-13T06:02:08;100644.03;;;18.08;70.74
76311;BME280;65120;59.304;18.294;2023-07-13T06:04:35;100646.41;;;18.12;70.38
76311;BME280;65120;59.304;18.294;2023-07-13T06:07:02;100648.88;;;18.15;70.14
76311;BME280;65120;59.304;18.294;2023-07-13T06:09:29;100645.34;;;18.16;70.26
76311;BME280;65120;59.304;18.294;2023-07-13T06:11:58;100641.53;;;18.22;70.09
76311;BME280;65120;59.304;18.294;2023-07-13T06:14:25;100650.19;;;18.24;69.32
76311;BME280;65120;59.304;18.294;2023-07-13T06:16:52;100644.78;;;18.27;69.08
76311;BME280;65120;59.304;18.294;2023-07-13T06:19:19;100645.47;;;18.31;69.35
76311;BME280;65120;59.304;18.294;2023-07-13T06:21:46;100646.31;;;18.31;69.25
76311;BME280;65120;59.304;18.294;2023-07-13T06:24:13;100649.66;;;18.35;68.89
76311;BME280;65120;59.304;18.294;2023-07-13T06:26:40;100650.44;;;18.37;68.86
76311;BME280;65120;59.304;18.294;2023-07-13T06:29:09;100652.13;;;18.38;68.78
76311;BME280;65120;59.304;18.294;2023-07-13T06:31:36;100654.44;;;18.44;68.33
76311;BME280;65120;59.304;18.294;2023-07-13T06:34:03;100656.16;;;18.45;68.27
76311;BME280;65120;59.304;18.294;2023-07-13T06:36:30;100661.28;;;18.48;68.04
76311;BME280;65120;59.304;18.294;2023-07-13T06:38:57;100656.78;;;18.50;67.86
76311;BME280;65120;59.304;18.294;2023-07-13T06:41:24;100667.03;;;18.56;67.92
76311;BME280;65120;59.304;18.294;2023-07-13T06:43:51;100662.50;;;18.58;67.74
76311;BME280;65120;59.304;18.294;2023-07-13T06:46:21;100657.97;;;18.60;67.51
76311;BME280;65120;59.304;18.294;2023-07-13T06:48:49;100656.97;;;18.63;67.59
76311;BME280;65120;59.304;18.294;2023-07-13T06:51:16;100650.16;;;18.59;67.13
76311;BME280;65120;59.304;18.294;2023-07-13T06:53:43;100664.66;;;18.68;66.56
76311;BME280;65120;59.304;18.294;2023-07-13T06:56:10;100662.78;;;18.70;66.27
76311;BME280;65120;59.304;18.294;2023-07-13T06:58:37;100667.94;;;18.73;65.73
76311;BME280;65120;59.304;18.294;2023-07-13T07:01:05;100661.63;;;18.75;65.68
76311;BME280;65120;59.304;18.294;2023-07-13T07:03:33;100670.16;;;18.80;65.30
76311;BME280;65120;59.304;18.294;2023-07-13T07:06:01;100674.59;;;18.80;64.79
76311;BME280;65120;59.304;18.294;2023-07-13T07:08:28;100667.97;;;18.88;64.50
76311;BME280;65120;59.304;18.294;2023-07-13T07:10:55;100670.38;;;18.93;64.59
76311;BME280;65120;59.304;18.294;2023-07-13T07:13:22;100665.56;;;19.00;64.73
76311;BME280;65120;59.304;18.294;2023-07-13T07:15:50;100670.53;;;19.06;64.51
76311;BME280;65120;59.304;18.294;2023-07-13T07:18:17;100672.75;;;19.14;64.67
76311;BME280;65120;59.304;18.294;2023-07-13T07:20:45;100675.00;;;19.21;64.68
76311;BME280;65120;59.304;18.294;2023-07-13T07:23:12;100680.59;;;19.31;63.66
76311;BME280;65120;59.304;18.294;2023-07-13T07:25:40;100680.09;;;19.40;63.30
76311;BME280;65120;59.304;18.294;2023-07-13T07:28:07;100669.84;;;19.50;63.29
76311;BME280;65120;59.304;18.294;2023-07-13T07:30:34;100673.63;;;19.60;63.22
76311;BME280;65120;59.304;18.294;2023-07-13T07:33:02;100680.16;;;19.70;62.66
76311;BME280;65120;59.304;18.294;2023-07-13T07:35:29;100669.13;;;19.78;62.05
76311;BME280;65120;59.304;18.294;2023-07-13T07:37:57;100670.38;;;19.87;61.80
76311;BME280;65120;59.304;18.294;2023-07-13T07:40:24;100666.22;;;19.97;61.76
76311;BME280;65120;59.304;18.294;2023-07-13T07:42:51;100671.06;;;20.05;61.61
76311;BME280;65120;59.304;18.294;2023-07-13T07:45:20;100666.25;;;20.11;61.10
76311;BME280;65120;59.304;18.294;2023-07-13T07:47:47;100664.75;;;20.21;61.09
76311;BME280;65120;59.304;18.294;2023-07-13T07:50:14;100673.00;;;20.31;60.12
76311;BME280;65120;59.304;18.294;2023-07-13T07:52:41;100674.34;;;20.38;60.75
76311;BME280;65120;59.304;18.294;2023-07-13T07:55:11;100678.13;;;20.49;59.62
76311;BME280;65120;59.304;18.294;2023-07-13T07:57:38;100669.94;;;20.53;59.30
76311;BME280;65120;59.304;18.294;2023-07-13T08:00:06;100679.03;;;20.63;59.14
76311;BME280;65120;59.304;18.294;2023-07-13T08:02:33;100681.97;;;20.73;58.65
76311;BME280;65120;59.304;18.294;2023-07-13T08:05:00;100681.50;;;20.81;58.37
76311;BME280;65120;59.304;18.294;2023-07-13T08:07:28;100678.34;;;20.88;58.29
76311;BME280;65120;59.304;18.294;2023-07-13T08:09:56;100674.34;;;20.96;58.00
76311;BME280;65120;59.304;18.294;2023-07-13T08:12:25;100671.38;;;21.00;57.81
76311;BME280;65120;59.304;18.294;2023-07-13T08:14:52;100679.63;;;21.10;57.72
76311;BME280;65120;59.304;18.294;2023-07-13T08:17:23;100676.59;;;21.16;57.45
76311;BME280;65120;59.304;18.294;2023-07-13T08:19:50;100683.22;;;21.23;58.00
76311;BME280;65120;59.304;18.294;2023-07-13T08:22:17;100678.63;;;21.25;56.99
76311;BME280;65120;59.304;18.294;2023-07-13T08:24:44;100685.38;;;21.31;57.39
76311;BME280;65120;59.304;18.294;2023-07-13T08:27:13;100687.72;;;21.36;56.67
76311;BME280;65120;59.304;18.294;2023-07-13T08:29:41;100694.50;;;21.41;55.58
76311;BME280;65120;59.304;18.294;2023-07-13T08:32:08;100696.75;;;21.47;55.57
76311;BME280;65120;59.304;18.294;2023-07-13T08:34:36;100702.69;;;21.51;54.85
76311;BME280;65120;59.304;18.294;2023-07-13T08:37:04;100686.75;;;21.51;55.03
76311;BME280;65120;59.304;18.294;2023-07-13T08:39:31;100699.53;;;21.59;55.71
76311;BME280;65120;59.304;18.294;2023-07-13T08:42:01;100710.63;;;21.65;55.43
76311;BME280;65120;59.304;18.294;2023-07-13T08:44:37;100705.84;;;21.70;55.51
76311;BME280;65120;59.304;18.294;2023-07-13T08:47:08;100705.56;;;21.75;55.66
76311;BME280;65120;59.304;18.294;2023-07-13T08:49:37;100696.53;;;21.77;54.72
76311;BME280;65120;59.304;18.294;2023-07-13T08:52:10;100700.69;;;21.82;54.45
76311;BME280;65120;59.304;18.294;2023-07-13T08:54:43;100705.72;;;21.86;54.47
76311;BME280;65120;59.304;18.294;2023-07-13T08:57:13;100702.84;;;21.89;54.17
76311;BME280;65120;59.304;18.294;2023-07-13T08:59:41;100713.16;;;21.94;53.86
76311;BME280;65120;59.304;18.294;2023-07-13T09:02:26;100700.53;;;21.97;53.71
76311;BME280;65120;59.304;18.294;2023-07-13T09:04:57;100704.78;;;22.00;53.58
76311;BME280;65120;59.304;18.294;2023-07-13T09:07:34;100701.78;;;22.05;52.82
76311;BME280;65120;59.304;18.294;2023-07-13T09:10:13;100700.81;;;22.06;52.57
76311;BME280;65120;59.304;18.294;2023-07-13T09:12:54;100699.69;;;22.10;52.88
76311;BME280;65120;59.304;18.294;2023-07-13T09:15:27;100699.38;;;22.14;52.54
76311;BME280;65120;59.304;18.294;2023-07-13T09:18:01;100698.41;;;22.15;51.49
76311;BME280;65120;59.304;18.294;2023-07-13T09:20:34;100705.91;;;22.23;52.31
76311;BME280;65120;59.304;18.294;2023-07-13T09:23:05;100701.44;;;22.23;52.34
76311;BME280;65120;59.304;18.294;2023-07-13T09:25:35;100708.88;;;22.31;52.79
76311;BME280;65120;59.304;18.294;2023-07-13T09:28:09;100703.38;;;22.34;51.74
76311;BME280;65120;59.304;18.294;2023-07-13T09:30:42;100701.66;;;22.33;52.24
76311;BME280;65120;59.304;18.294;2023-07-13T09:33:13;100717.84;;;22.43;51.45
76311;BME280;65120;59.304;18.294;2023-07-13T09:35:41;100714.97;;;22.46;51.02
76311;BME280;65120;59.304;18.294;2023-07-13T09:38:12;100715.69;;;22.48;50.69
76311;BME280;65120;59.304;18.294;2023-07-13T09:40:46;100694.19;;;22.38;49.94
76311;BME280;65120;59.304;18.294;2023-07-13T09:43:18;100711.97;;;22.51;49.87
76311;BME280;65120;59.304;18.294;2023-07-13T09:45:47;100703.34;;;22.47;49.95
76311;BME280;65120;59.304;18.294;2023-07-13T09:48:17;100700.47;;;22.50;50.22
76311;BME280;65120;59.304;18.294;2023-07-13T09:50:45;100699.63;;;22.50;50.08
76311;BME280;65120;59.304;18.294;2023-07-13T09:53:13;100692.72;;;22.47;50.26
76311;BME280;65120;59.304;18.294;2023-07-13T09:55:42;100709.22;;;22.52;50.47
76311;BME280;65120;59.304;18.294;2023-07-13T09:58:12;100702.16;;;22.51;50.36
76311;BME280;65120;59.304;18.294;2023-07-13T10:00:40;100704.66;;;22.54;49.67
76311;BME280;65120;59.304;18.294;2023-07-13T10:03:20;100702.72;;;22.56;50.12
76311;BME280;65120;59.304;18.294;2023-07-13T10:05:49;100700.81;;;22.58;49.36
76311;BME280;65120;59.304;18.294;2023-07-13T10:08:18;100696.31;;;22.59;49.63
76311;BME280;65120;59.304;18.294;2023-07-13T10:10:46;100703.16;;;22.63;49.72
76311;BME280;65120;59.304;18.294;2023-07-13T10:13:31;100690.56;;;22.65;49.05
76311;BME280;65120;59.304;18.294;2023-07-13T10:16:00;100701.00;;;22.68;49.26
76311;BME280;65120;59.304;18.294;2023-07-13T10:18:31;100700.78;;;22.71;49.53
76311;BME280;65120;59.304;18.294;2023-07-13T10:21:11;100700.47;;;22.76;49.03
76311;BME280;65120;59.304;18.294;2023-07-13T10:23:39;100695.66;;;22.81;49.09
76311;BME280;65120;59.304;18.294;2023-07-13T10:26:12;100709.59;;;22.84;49.05
76311;BME280;65120;59.304;18.294;2023-07-13T10:28:44;100705.03;;;22.86;48.84
76311;BME280;65120;59.304;18.294;2023-07-13T10:31:14;100707.56;;;22.88;48.81
76311;BME280;65120;59.304;18.294;2023-07-13T10:33:44;100704.19;;;22.86;48.75
76311;BME280;65120;59.304;18.294;2023-07-13T10:36:22;100707.56;;;22.88;48.75
76311;BME280;65120;59.304;18.294;2023-07-13T10:38:54;100714.72;;;22.87;48.41
76311;BME280;65120;59.304;18.294;2023-07-13T10:41:24;100710.22;;;22.88;48.44
76311;BME280;65120;59.304;18.294;2023-07-13T10:43:54;100714.63;;;22.89;48.36
76311;BME280;65120;59.304;18.294;2023-07-13T10:46:25;100718.03;;;22.91;48.46
76311;BME280;65120;59.304;18.294;2023-07-13T10:48:55;100710.78;;;22.93;48.98
76311;BME280;65120;59.304;18.294;2023-07-13T10:51:24;100709.72;;;22.96;48.58
76311;BME280;65120;59.304;18.294;2023-07-13T10:54:19;100707.81;;;22.98;48.60
76311;BME280;65120;59.304;18.294;2023-07-13T10:56:53;100704.19;;;22.99;48.25
76311;BME280;65120;59.304;18.294;2023-07-13T10:59:33;100707.69;;;22.99;48.41
76311;BME280;65120;59.304;18.294;2023-07-13T11:02:11;100712.06;;;23.00;48.18
76311;BME280;65120;59.304;18.294;2023-07-13T11:04:42;100706.75;;;23.00;48.06
76311;BME280;65120;59.304;18.294;2023-07-13T11:07:26;100704.09;;;23.00;47.59
76311;BME280;65120;59.304;18.294;2023-07-13T11:09:55;100711.22;;;23.00;47.24
76311;BME280;65120;59.304;18.294;2023-07-13T11:12:50;100707.38;;;23.04;47.06
76311;BME280;65120;59.304;18.294;2023-07-13T11:15:29;100705.56;;;23.04;46.66
76311;BME280;65120;59.304;18.294;2023-07-13T11:17:57;100710.03;;;23.04;47.50
76311;BME280;65120;59.304;18.294;2023-07-13T11:20:36;100708.00;;;23.07;46.54
76311;BME280;65120;59.304;18.294;2023-07-13T11:25:53;100708.00;;;23.07;46.39
76311;BME280;65120;59.304;18.294;2023-07-13T11:28:25;100704.41;;;23.08;45.79
76311;BME280;65120;59.304;18.294;2023-07-13T11:31:12;100705.25;;;23.09;46.14
76311;BME280;65120;59.304;18.294;2023-07-13T11:34:00;100723.97;;;23.07;45.06
76311;BME280;65120;59.304;18.294;2023-07-13T11:36:39;100716.97;;;23.06;45.53
76311;BME280;65120;59.304;18.294;2023-07-13T11:39:17;100711.84;;;23.03;45.45
76311;BME280;65120;59.304;18.294;2023-07-13T11:41:50;100698.22;;;22.95;45.30
76311;BME280;65120;59.304;18.294;2023-07-13T11:44:19;100718.25;;;23.01;45.57
76311;BME280;65120;59.304;18.294;2023-07-13T11:46:48;100712.31;;;22.97;45.54
76311;BME280;65120;59.304;18.294;2023-07-13T11:49:18;100717.41;;;23.00;44.78
76311;BME280;65120;59.304;18.294;2023-07-13T11:51:47;100717.41;;;23.00;45.34
76311;BME280;65120;59.304;18.294;2023-07-13T11:54:24;100711.22;;;23.00;45.46
76311;BME280;65120;59.304;18.294;2023-07-13T11:56:52;100713.16;;;22.98;45.64
76311;BME280;65120;59.304;18.294;2023-07-13T11:59:19;100703.25;;;23.00;45.57
76311;BME280;65120;59.304;18.294;2023-07-13T12:01:52;100706.75;;;23.00;46.12
76311;BME280;65120;59.304;18.294;2023-07-13T12:04:22;100708.44;;;23.01;46.13
76311;BME280;65120;59.304;18.294;2023-07-13T12:07:04;100703.97;;;23.02;46.60
76311;BME280;65120;59.304;18.294;2023-07-13T12:09:33;100695.03;;;23.03;46.04
76311;BME280;65120;59.304;18.294;2023-07-13T12:12:02;100701.53;;;22.99;45.92
76311;BME280;65120;59.304;18.294;2023-07-13T12:14:33;100712.06;;;23.00;45.55
76311;BME280;65120;59.304;18.294;2023-07-13T12:17:01;100710.34;;;22.99;45.67
76311;BME280;65120;59.304;18.294;2023-07-13T12:19:29;100711.31;;;22.98;45.27
76311;BME280;65120;59.304;18.294;2023-07-13T12:21:58;100702.06;;;22.91;45.36
76311;BME280;65120;59.304;18.294;2023-07-13T12:24:26;100707.91;;;22.96;45.61
76311;BME280;65120;59.304;18.294;2023-07-13T12:26:55;100711.63;;;22.94;45.73
76311;BME280;65120;59.304;18.294;2023-07-13T12:29:25;100712.59;;;22.93;45.79
76311;BME280;65120;59.304;18.294;2023-07-13T12:31:52;100705.66;;;22.90;46.06
76311;BME280;65120;59.304;18.294;2023-07-13T12:34:22;100709.28;;;22.89;45.71
76311;BME280;65120;59.304;18.294;2023-07-13T12:36:52;100710.03;;;22.91;46.38
76311;BME280;65120;59.304;18.294;2023-07-13T12:39:22;100700.25;;;22.92;46.37
76311;BME280;65120;59.304;18.294;2023-07-13T12:41:51;100708.94;;;22.94;46.26
76311;BME280;65120;59.304;18.294;2023-07-13T12:44:26;100714.22;;;22.95;46.45
76311;BME280;65120;59.304;18.294;2023-07-13T12:46:55;100712.31;;;22.97;46.93
76311;BME280;65120;59.304;18.294;2023-07-13T12:49:25;100698.63;;;22.89;46.06
76311;BME280;65120;59.304;18.294;2023-07-13T12:51:58;100708.66;;;22.98;45.74
76311;BME280;65120;59.304;18.294;2023-07-13T12:54:28;100716.56;;;23.00;46.09